sensor_id;sensor_type;location;lat;lon;timestamp;P1;durP1;ratioP1;P2;durP2;ratioP2
66721;SDS011;53633;49.932;10.884;2023-02-08T00:00:50;21.40;;;8.17;;
66721;SDS011;53633;49.932;10.884;2023-02-08T00:03:17;22.38;;;9.43;;
66721;SDS011;53633;49.932;10.884;2023-02-08T00:05:44;24.63;;;9.02;;
66721;SDS011;53633;49.932;10.884;2023-02-08T00:08:11;23.08;;;9.15;;
66721;SDS011;53633;49.932;10.884;2023-02-08T00:10:38;24.45;;;8.77;;
66721;SDS011;53633;49.932;10.884;2023-02-08T00:13:07;21.63;;;8.70;;
66721;SDS011;53633;49.932;10.884;2023-02-08T00:15:33;22.77;;;8.75;;
66721;SDS011;53633;49.932;10.884;2023-02-08T00:18:00;22.58;;;8.50;;
66721;SDS011;53633;49.932;10.884;2023-02-08T00:20:27;24.73;;;8.50;;
66721;SDS011;53633;49.932;10.884;2023-02-08T00:22:54;21.67;;;7.97;;
66721;SDS011;53633;49.932;10.884;2023-02-08T00:25:21;19.73;;;7.20;;
66721;SDS011;53633;49.932;10.884;2023-02-08T00:27:48;22.92;;;7.80;;
66721;SDS011;53633;49.932;10.884;2023-02-08T00:30:16;19.85;;;7.38;;
66721;SDS011;53633;49.932;10.884;2023-02-08T00:32:43;22.13;;;7.22;;
66721;SDS011;53633;49.932;10.884;2023-02-08T00:35:09;20.45;;;7.50;;
66721;SDS011;53633;49.932;10.884;2023-02-08T00:37:36;22.03;;;7.33;;
66721;SDS011;53633;49.932;10.884;2023-02-08T00:40:03;19.08;;;8.07;;
66721;SDS011;53633;49.932;10.884;2023-02-08T00:42:30;22.15;;;9.10;;
66721;SDS011;53633;49.932;10.884;2023-02-08T00:44:57;24.58;;;8.50;;
66721;SDS011;53633;49.932;10.884;2023-02-08T00:47:25;21.90;;;8.02;;
66721;SDS011;53633;49.932;10.884;2023-02-08T00:49:52;24.73;;;8.13;;
66721;SDS011;53633;49.932;10.884;2023-02-08T00:52:19;21.13;;;8.40;;
66721;SDS011;53633;49.932;10.884;2023-02-08T00:54:46;24.98;;;8.45;;
66721;SDS011;53633;49.932;10.884;2023-02-08T00:57:13;23.00;;;8.40;;
66721;SDS011;53633;49.932;10.884;2023-02-08T00:59:40;22.15;;;8.55;;
66721;SDS011;53633;49.932;10.884;2023-02-08T01:02:07;21.43;;;8.80;;
66721;SDS011;53633;49.932;10.884;2023-02-08T01:04:35;24.40;;;9.60;;
66721;SDS011;53633;49.932;10.884;2023-02-08T01:07:02;25.60;;;9.48;;
66721;SDS011;53633;49.932;10.884;2023-02-08T01:09:29;23.55;;;8.68;;
66721;SDS011;53633;49.932;10.884;2023-02-08T01:11:56;28.23;;;10.52;;
66721;SDS011;53633;49.932;10.884;2023-02-08T01:14:23;25.77;;;9.47;;
66721;SDS011;53633;49.932;10.884;2023-02-08T01:16:50;23.35;;;10.23;;
66721;SDS011;53633;49.932;10.884;2023-02-08T01:19:17;28.10;;;9.88;;
66721;SDS011;53633;49.932;10.884;2023-02-08T01:21:46;26.23;;;10.45;;
66721;SDS011;53633;49.932;10.884;2023-02-08T01:24:12;25.88;;;10.30;;
66721;SDS011;53633;49.932;10.884;2023-02-08T01:26:39;27.20;;;10.10;;
66721;SDS011;53633;49.932;10.884;2023-02-08T01:29:07;25.80;;;10.55;;
66721;SDS011;53633;49.932;10.884;2023-02-08T01:31:35;27.52;;;9.70;;
66721;SDS011;53633;49.932;10.884;2023-02-08T01:34:03;26.17;;;9.63;;
66721;SDS011;53633;49.932;10.884;2023-02-08T01:36:31;28.00;;;10.40;;
66721;SDS011;53633;49.932;10.884;2023-02-08T01:38:59;25.60;;;9.63;;
66721;SDS011;53633;49.932;10.884;2023-02-08T01:41:27;28.38;;;10.25;;
66721;SDS011;53633;49.932;10.884;2023-02-08T01:43:57;27.88;;;9.18;;
66721;SDS011;53633;49.932;10.884;2023-02-08T01:46:53;22.73;;;9.23;;
66721;SDS011;53633;49.932;10.884;2023-02-08T01:49:21;20.58;;;8.52;;
66721;SDS011;53633;49.932;10.884;2023-02-08T01:51:51;25.50;;;9.57;;
66721;SDS011;53633;49.932;10.884;2023-02-08T01:54:25;25.90;;;9.10;;
66721;SDS011;53633;49.932;10.884;2023-02-08T01:56:53;24.48;;;9.38;;
66721;SDS011;53633;49.932;10.884;2023-02-08T01:59:21;22.17;;;9.10;;
66721;SDS011;53633;49.932;10.884;2023-02-08T02:01:51;24.40;;;8.93;;
66721;SDS011;53633;49.932;10.884;2023-02-08T02:04:21;21.90;;;8.70;;
66721;SDS011;53633;49.932;10.884;2023-02-08T02:06:57;24.50;;;8.70;;
66721;SDS011;53633;49.932;10.884;2023-02-08T02:09:27;22.90;;;9.02;;
66721;SDS011;53633;49.932;10.884;2023-02-08T02:11:58;26.45;;;10.52;;
66721;SDS011;53633;49.932;10.884;2023-02-08T02:14:26;25.17;;;9.75;;
66721;SDS011;53633;49.932;10.884;2023-02-08T02:16:53;24.50;;;8.80;;
66721;SDS011;53633;49.932;10.884;2023-02-08T02:19:22;21.83;;;9.70;;
66721;SDS011;53633;49.932;10.884;2023-02-08T02:22:00;23.17;;;8.43;;
66721;SDS011;53633;49.932;10.884;2023-02-08T02:24:45;20.40;;;7.60;;
66721;SDS011;53633;49.932;10.884;2023-02-08T02:27:28;24.67;;;8.93;;
66721;SDS011;53633;49.932;10.884;2023-02-08T02:33:04;19.73;;;6.97;;
66721;SDS011;53633;49.932;10.884;2023-02-08T02:35:44;20.35;;;6.43;;
66721;SDS011;53633;49.932;10.884;2023-02-08T02:38:17;19.35;;;6.88;;
66721;SDS011;53633;49.932;10.884;2023-02-08T02:40:55;17.60;;;6.47;;
66721;SDS011;53633;49.932;10.884;2023-02-08T02:43:31;19.67;;;6.00;;
66721;SDS011;53633;49.932;10.884;2023-02-08T02:46:06;20.65;;;6.95;;
66721;SDS011;53633;49.932;10.884;2023-02-08T02:48:43;16.67;;;6.15;;
66721;SDS011;53633;49.932;10.884;2023-02-08T02:51:17;18.25;;;6.68;;
66721;SDS011;53633;49.932;10.884;2023-02-08T02:53:49;17.85;;;6.65;;
66721;SDS011;53633;49.932;10.884;2023-02-08T02:56:21;16.23;;;6.80;;
66721;SDS011;53633;49.932;10.884;2023-02-08T02:58:50;18.67;;;5.90;;
66721;SDS011;53633;49.932;10.884;2023-02-08T03:01:21;20.95;;;7.18;;
66721;SDS011;53633;49.932;10.884;2023-02-08T03:03:50;20.10;;;7.43;;
66721;SDS011;53633;49.932;10.884;2023-02-08T03:06:19;19.20;;;7.28;;
66721;SDS011;53633;49.932;10.884;2023-02-08T03:08:59;16.93;;;6.20;;
66721;SDS011;53633;49.932;10.884;2023-02-08T03:11:46;21.17;;;7.18;;
66721;SDS011;53633;49.932;10.884;2023-02-08T03:17:15;17.92;;;6.07;;
66721;SDS011;53633;49.932;10.884;2023-02-08T03:19:56;21.08;;;6.90;;
66721;SDS011;53633;49.932;10.884;2023-02-08T03:22:31;17.93;;;6.33;;
66721;SDS011;53633;49.932;10.884;2023-02-08T03:25:09;19.45;;;6.82;;
66721;SDS011;53633;49.932;10.884;2023-02-08T03:27:43;17.92;;;6.65;;
66721;SDS011;53633;49.932;10.884;2023-02-08T03:30:19;18.45;;;6.40;;
66721;SDS011;53633;49.932;10.884;2023-02-08T03:32:50;18.00;;;6.60;;
66721;SDS011;53633;49.932;10.884;2023-02-08T03:35:23;18.87;;;7.07;;
66721;SDS011;53633;49.932;10.884;2023-02-08T03:37:54;17.02;;;6.82;;
66721;SDS011;53633;49.932;10.884;2023-02-08T03:40:26;19.88;;;7.40;;
66721;SDS011;53633;49.932;10.884;2023-02-08T03:42:55;18.83;;;6.78;;
66721;SDS011;53633;49.932;10.884;2023-02-08T03:45:27;19.40;;;6.65;;
66721;SDS011;53633;49.932;10.884;2023-02-08T03:47:58;19.67;;;6.93;;
66721;SDS011;53633;49.932;10.884;2023-02-08T03:50:29;19.55;;;6.90;;
66721;SDS011;53633;49.932;10.884;2023-02-08T03:53:00;21.02;;;7.10;;
66721;SDS011;53633;49.932;10.884;2023-02-08T03:55:28;20.33;;;7.53;;
66721;SDS011;53633;49.932;10.884;2023-02-08T03:57:58;17.80;;;8.20;;
66721;SDS011;53633;49.932;10.884;2023-02-08T04:00:33;22.13;;;7.30;;
66721;SDS011;53633;49.932;10.884;2023-02-08T04:03:03;20.35;;;7.88;;
66721;SDS011;53633;49.932;10.884;2023-02-08T04:05:33;24.83;;;8.20;;
66721;SDS011;53633;49.932;10.884;2023-02-08T04:08:00;21.13;;;8.02;;
66721;SDS011;53633;49.932;10.884;2023-02-08T04:10:27;19.08;;;8.05;;
66721;SDS011;53633;49.932;10.884;2023-02-08T04:12:54;21.57;;;7.00;;
66721;SDS011;53633;49.932;10.884;2023-02-08T04:15:20;21.23;;;7.53;;
66721;SDS011;53633;49.932;10.884;2023-02-08T04:17:47;22.42;;;7.72;;
66721;SDS011;53633;49.932;10.884;2023-02-08T04:20:14;21.85;;;7.32;;
66721;SDS011;53633;49.932;10.884;2023-02-08T04:22:42;23.25;;;8.27;;
66721;SDS011;53633;49.932;10.884;2023-02-08T04:25:08;18.93;;;6.83;;
66721;SDS011;53633;49.932;10.884;2023-02-08T04:27:35;22.58;;;8.00;;
66721;SDS011;53633;49.932;10.884;2023-02-08T04:30:02;16.63;;;7.63;;
66721;SDS011;53633;49.932;10.884;2023-02-08T04:32:29;20.40;;;7.45;;
66721;SDS011;53633;49.932;10.884;2023-02-08T04:34:56;23.88;;;7.43;;
66721;SDS011;53633;49.932;10.884;2023-02-08T04:37:23;19.10;;;7.20;;
66721;SDS011;53633;49.932;10.884;2023-02-08T04:39:51;22.13;;;7.65;;
66721;SDS011;53633;49.932;10.884;2023-02-08T04:42:18;21.08;;;7.75;;
66721;SDS011;53633;49.932;10.884;2023-02-08T04:44:45;24.15;;;7.47;;
66721;SDS011;53633;49.932;10.884;2023-02-08T04:47:11;23.33;;;7.53;;
66721;SDS011;53633;49.932;10.884;2023-02-08T04:49:38;24.27;;;7.03;;
66721;SDS011;53633;49.932;10.884;2023-02-08T04:52:05;22.45;;;7.03;;
66721;SDS011;53633;49.932;10.884;2023-02-08T04:54:32;20.15;;;7.38;;
66721;SDS011;53633;49.932;10.884;2023-02-08T04:57:00;21.58;;;7.70;;
66721;SDS011;53633;49.932;10.884;2023-02-08T04:59:27;22.58;;;7.75;;
66721;SDS011;53633;49.932;10.884;2023-02-08T05:01:54;22.17;;;7.57;;
66721;SDS011;53633;49.932;10.884;2023-02-08T05:04:21;24.15;;;8.93;;
66721;SDS011;53633;49.932;10.884;2023-02-08T05:06:48;21.52;;;7.95;;
66721;SDS011;53633;49.932;10.884;2023-02-08T05:09:14;21.00;;;7.95;;
66721;SDS011;53633;49.932;10.884;2023-02-08T05:11:41;21.08;;;7.50;;
66721;SDS011;53633;49.932;10.884;2023-02-08T05:14:09;18.17;;;7.57;;
66721;SDS011;53633;49.932;10.884;2023-02-08T05:16:36;21.52;;;7.15;;
66721;SDS011;53633;49.932;10.884;2023-02-08T05:19:03;18.55;;;7.68;;
66721;SDS011;53633;49.932;10.884;2023-02-08T05:21:29;23.42;;;7.93;;
66721;SDS011;53633;49.932;10.884;2023-02-08T05:23:56;20.13;;;7.50;;
66721;SDS011;53633;49.932;10.884;2023-02-08T05:26:23;21.77;;;7.40;;
66721;SDS011;53633;49.932;10.884;2023-02-08T05:28:49;19.38;;;7.55;;
66721;SDS011;53633;49.932;10.884;2023-02-08T05:31:18;18.95;;;6.72;;
66721;SDS011;53633;49.932;10.884;2023-02-08T05:33:47;22.33;;;8.85;;
66721;SDS011;53633;49.932;10.884;2023-02-08T05:36:14;22.33;;;7.38;;
66721;SDS011;53633;49.932;10.884;2023-02-08T05:38:41;23.63;;;7.83;;
66721;SDS011;53633;49.932;10.884;2023-02-08T05:41:08;22.98;;;7.75;;
66721;SDS011;53633;49.932;10.884;2023-02-08T05:43:35;21.77;;;8.25;;
66721;SDS011;53633;49.932;10.884;2023-02-08T05:46:02;24.13;;;8.68;;
66721;SDS011;53633;49.932;10.884;2023-02-08T05:48:30;21.55;;;7.85;;
66721;SDS011;53633;49.932;10.884;2023-02-08T05:50:57;21.97;;;8.13;;
66721;SDS011;53633;49.932;10.884;2023-02-08T05:53:24;24.73;;;8.38;;
66721;SDS011;53633;49.932;10.884;2023-02-08T05:55:51;23.58;;;7.68;;
66721;SDS011;53633;49.932;10.884;2023-02-08T05:58:18;22.83;;;8.68;;
66721;SDS011;53633;49.932;10.884;2023-02-08T06:00:44;22.40;;;8.43;;
66721;SDS011;53633;49.932;10.884;2023-02-08T06:03:11;22.30;;;8.47;;
66721;SDS011;53633;49.932;10.884;2023-02-08T06:05:39;21.88;;;7.97;;
66721;SDS011;53633;49.932;10.884;2023-02-08T06:08:07;23.35;;;8.63;;
66721;SDS011;53633;49.932;10.884;2023-02-08T06:10:34;19.98;;;8.20;;
66721;SDS011;53633;49.932;10.884;2023-02-08T06:13:01;25.65;;;8.80;;
66721;SDS011;53633;49.932;10.884;2023-02-08T06:15:28;24.17;;;8.10;;
66721;SDS011;53633;49.932;10.884;2023-02-08T06:17:55;23.55;;;8.70;;
66721;SDS011;53633;49.932;10.884;2023-02-08T06:20:22;21.20;;;8.25;;
66721;SDS011;53633;49.932;10.884;2023-02-08T06:22:50;25.15;;;8.80;;
66721;SDS011;53633;49.932;10.884;2023-02-08T06:25:17;23.73;;;9.20;;
66721;SDS011;53633;49.932;10.884;2023-02-08T06:27:44;19.00;;;8.43;;
66721;SDS011;53633;49.932;10.884;2023-02-08T06:30:11;30.58;;;8.75;;
66721;SDS011;53633;49.932;10.884;2023-02-08T06:32:38;25.23;;;8.43;;
66721;SDS011;53633;49.932;10.884;2023-02-08T06:35:05;22.75;;;8.23;;
66721;SDS011;53633;49.932;10.884;2023-02-08T06:37:32;22.30;;;8.73;;
66721;SDS011;53633;49.932;10.884;2023-02-08T06:40:00;21.23;;;8.17;;
66721;SDS011;53633;49.932;10.884;2023-02-08T06:42:27;24.63;;;8.27;;
66721;SDS011;53633;49.932;10.884;2023-02-08T06:44:54;24.48;;;8.57;;
66721;SDS011;53633;49.932;10.884;2023-02-08T06:47:21;24.10;;;8.77;;
66721;SDS011;53633;49.932;10.884;2023-02-08T06:49:48;24.13;;;7.97;;
66721;SDS011;53633;49.932;10.884;2023-02-08T06:52:15;20.57;;;7.73;;
66721;SDS011;53633;49.932;10.884;2023-02-08T06:54:41;23.75;;;9.45;;
66721;SDS011;53633;49.932;10.884;2023-02-08T06:57:10;22.80;;;8.13;;
66721;SDS011;53633;49.932;10.884;2023-02-08T06:59:36;26.13;;;9.55;;
66721;SDS011;53633;49.932;10.884;2023-02-08T07:02:03;25.77;;;9.35;;
66721;SDS011;53633;49.932;10.884;2023-02-08T07:04:30;22.17;;;8.63;;
66721;SDS011;53633;49.932;10.884;2023-02-08T07:06:57;20.33;;;7.90;;
66721;SDS011;53633;49.932;10.884;2023-02-08T07:09:23;26.85;;;9.25;;
66721;SDS011;53633;49.932;10.884;2023-02-08T07:11:50;20.33;;;8.23;;
66721;SDS011;53633;49.932;10.884;2023-02-08T07:14:18;20.05;;;8.05;;
66721;SDS011;53633;49.932;10.884;2023-02-08T07:16:45;22.13;;;7.53;;
66721;SDS011;53633;49.932;10.884;2023-02-08T07:19:12;21.75;;;8.32;;
66721;SDS011;53633;49.932;10.884;2023-02-08T07:21:39;27.60;;;8.38;;
66721;SDS011;53633;49.932;10.884;2023-02-08T07:24:05;25.20;;;10.13;;
66721;SDS011;53633;49.932;10.884;2023-02-08T07:26:32;26.58;;;8.40;;
66721;SDS011;53633;49.932;10.884;2023-02-08T07:28:59;22.93;;;7.87;;
66721;SDS011;53633;49.932;10.884;2023-02-08T07:31:27;23.02;;;9.20;;
66721;SDS011;53633;49.932;10.884;2023-02-08T07:33:54;25.50;;;8.52;;
66721;SDS011;53633;49.932;10.884;2023-02-08T07:36:20;30.05;;;9.68;;
66721;SDS011;53633;49.932;10.884;2023-02-08T07:38:47;28.25;;;11.18;;
66721;SDS011;53633;49.932;10.884;2023-02-08T07:41:14;27.53;;;10.50;;
66721;SDS011;53633;49.932;10.884;2023-02-08T07:43:41;27.60;;;10.10;;
66721;SDS011;53633;49.932;10.884;2023-02-08T07:46:09;26.48;;;10.50;;
66721;SDS011;53633;49.932;10.884;2023-02-08T07:48:39;31.27;;;11.38;;
66721;SDS011;53633;49.932;10.884;2023-02-08T07:51:06;23.83;;;9.23;;
66721;SDS011;53633;49.932;10.884;2023-02-08T07:53:34;26.70;;;9.07;;
66721;SDS011;53633;49.932;10.884;2023-02-08T07:56:01;24.55;;;10.52;;
66721;SDS011;53633;49.932;10.884;2023-02-08T07:58:28;26.05;;;10.63;;
66721;SDS011;53633;49.932;10.884;2023-02-08T08:00:54;24.70;;;9.20;;
66721;SDS011;53633;49.932;10.884;2023-02-08T08:03:21;24.10;;;9.40;;
66721;SDS011;53633;49.932;10.884;2023-02-08T08:05:49;22.90;;;9.17;;
66721;SDS011;53633;49.932;10.884;2023-02-08T08:08:19;26.95;;;9.10;;
66721;SDS011;53633;49.932;10.884;2023-02-08T08:10:46;21.00;;;9.25;;
66721;SDS011;53633;49.932;10.884;2023-02-08T08:13:13;19.27;;;9.13;;
66721;SDS011;53633;49.932;10.884;2023-02-08T08:15:40;22.98;;;9.13;;
66721;SDS011;53633;49.932;10.884;2023-02-08T08:18:07;21.80;;;8.83;;
66721;SDS011;53633;49.932;10.884;2023-02-08T08:20:35;18.58;;;8.82;;
66721;SDS011;53633;49.932;10.884;2023-02-08T08:23:03;21.10;;;9.38;;
66721;SDS011;53633;49.932;10.884;2023-02-08T08:25:30;22.17;;;9.80;;
66721;SDS011;53633;49.932;10.884;2023-02-08T08:27:57;20.45;;;9.52;;
66721;SDS011;53633;49.932;10.884;2023-02-08T08:30:24;20.90;;;9.10;;
66721;SDS011;53633;49.932;10.884;2023-02-08T08:32:51;21.23;;;8.63;;
66721;SDS011;53633;49.932;10.884;2023-02-08T08:35:17;19.77;;;9.00;;
66721;SDS011;53633;49.932;10.884;2023-02-08T08:37:44;21.00;;;8.90;;
66721;SDS011;53633;49.932;10.884;2023-02-08T08:40:12;20.58;;;9.48;;
66721;SDS011;53633;49.932;10.884;2023-02-08T08:42:39;22.03;;;9.93;;
66721;SDS011;53633;49.932;10.884;2023-02-08T08:45:06;24.48;;;10.40;;
66721;SDS011;53633;49.932;10.884;2023-02-08T08:47:34;23.42;;;10.30;;
66721;SDS011;53633;49.932;10.884;2023-02-08T08:50:00;24.80;;;10.70;;
66721;SDS011;53633;49.932;10.884;2023-02-08T08:52:27;21.92;;;10.82;;
66721;SDS011;53633;49.932;10.884;2023-02-08T08:54:54;21.67;;;9.87;;
66721;SDS011;53633;49.932;10.884;2023-02-08T08:57:22;19.67;;;9.77;;
66721;SDS011;53633;49.932;10.884;2023-02-08T08:59:49;21.83;;;10.57;;
66721;SDS011;53633;49.932;10.884;2023-02-08T09:02:16;22.15;;;10.98;;
66721;SDS011;53633;49.932;10.884;2023-02-08T09:04:42;22.80;;;11.18;;
66721;SDS011;53633;49.932;10.884;2023-02-08T09:07:09;20.87;;;9.67;;
66721;SDS011;53633;49.932;10.884;2023-02-08T09:09:36;20.45;;;9.95;;
66721;SDS011;53633;49.932;10.884;2023-02-08T09:12:03;20.10;;;10.45;;
66721;SDS011;53633;49.932;10.884;2023-02-08T09:14:31;20.58;;;10.20;;
66721;SDS011;53633;49.932;10.884;2023-02-08T09:16:58;20.77;;;9.88;;
66721;SDS011;53633;49.932;10.884;2023-02-08T09:19:25;24.13;;;11.40;;
66721;SDS011;53633;49.932;10.884;2023-02-08T09:21:51;20.60;;;9.98;;
66721;SDS011;53633;49.932;10.884;2023-02-08T09:24:18;21.50;;;10.35;;
66721;SDS011;53633;49.932;10.884;2023-02-08T09:26:45;22.00;;;11.60;;
66721;SDS011;53633;49.932;10.884;2023-02-08T09:29:12;22.92;;;10.93;;
66721;SDS011;53633;49.932;10.884;2023-02-08T09:31:40;20.37;;;9.40;;
66721;SDS011;53633;49.932;10.884;2023-02-08T09:34:07;20.58;;;10.20;;
66721;SDS011;53633;49.932;10.884;2023-02-08T09:36:34;24.42;;;10.85;;
66721;SDS011;53633;49.932;10.884;2023-02-08T09:39:03;21.35;;;9.85;;
66721;SDS011;53633;49.932;10.884;2023-02-08T09:41:38;21.42;;;10.15;;
66721;SDS011;53633;49.932;10.884;2023-02-08T09:44:16;22.90;;;9.63;;
66721;SDS011;53633;49.932;10.884;2023-02-08T09:46:51;29.73;;;11.05;;
66721;SDS011;53633;49.932;10.884;2023-02-08T09:49:23;23.40;;;10.57;;
66721;SDS011;53633;49.932;10.884;2023-02-08T09:51:54;24.33;;;10.40;;
66721;SDS011;53633;49.932;10.884;2023-02-08T09:54:25;24.80;;;10.02;;
66721;SDS011;53633;49.932;10.884;2023-02-08T09:56:55;22.17;;;9.87;;
66721;SDS011;53633;49.932;10.884;2023-02-08T09:59:24;23.40;;;9.52;;
66721;SDS011;53633;49.932;10.884;2023-02-08T10:01:55;22.33;;;9.52;;
66721;SDS011;53633;49.932;10.884;2023-02-08T10:04:27;22.58;;;9.90;;
66721;SDS011;53633;49.932;10.884;2023-02-08T10:07:01;24.10;;;9.30;;
66721;SDS011;53633;49.932;10.884;2023-02-08T10:09:28;22.87;;;10.10;;
66721;SDS011;53633;49.932;10.884;2023-02-08T10:11:59;23.63;;;9.10;;
66721;SDS011;53633;49.932;10.884;2023-02-08T10:14:36;24.67;;;9.52;;
66721;SDS011;53633;49.932;10.884;2023-02-08T10:17:13;23.73;;;9.90;;
66721;SDS011;53633;49.932;10.884;2023-02-08T10:20:02;23.02;;;9.05;;
66721;SDS011;53633;49.932;10.884;2023-02-08T10:22:33;22.27;;;8.77;;
66721;SDS011;53633;49.932;10.884;2023-02-08T10:25:18;21.73;;;7.35;;
66721;SDS011;53633;49.932;10.884;2023-02-08T10:28:02;17.73;;;7.22;;
66721;SDS011;53633;49.932;10.884;2023-02-08T10:30:40;17.80;;;6.00;;
66721;SDS011;53633;49.932;10.884;2023-02-08T10:33:16;18.17;;;6.57;;
66721;SDS011;53633;49.932;10.884;2023-02-08T10:35:47;19.83;;;6.73;;
66721;SDS011;53633;49.932;10.884;2023-02-08T10:38:20;20.40;;;6.68;;
66721;SDS011;53633;49.932;10.884;2023-02-08T10:40:50;17.50;;;6.35;;
66721;SDS011;53633;49.932;10.884;2023-02-08T10:43:22;17.50;;;6.18;;
66721;SDS011;53633;49.932;10.884;2023-02-08T10:45:55;15.48;;;6.32;;
66721;SDS011;53633;49.932;10.884;2023-02-08T10:48:30;16.47;;;5.40;;
66721;SDS011;53633;49.932;10.884;2023-02-08T10:51:03;17.85;;;6.47;;
66721;SDS011;53633;49.932;10.884;2023-02-08T10:53:30;15.77;;;5.95;;
66721;SDS011;53633;49.932;10.884;2023-02-08T10:55:57;20.50;;;7.25;;
66721;SDS011;53633;49.932;10.884;2023-02-08T10:58:24;17.05;;;5.82;;
66721;SDS011;53633;49.932;10.884;2023-02-08T11:00:51;17.17;;;5.93;;
66721;SDS011;53633;49.932;10.884;2023-02-08T11:03:20;16.45;;;6.15;;
66721;SDS011;53633;49.932;10.884;2023-02-08T11:05:49;18.52;;;6.70;;
66721;SDS011;53633;49.932;10.884;2023-02-08T11:08:17;16.90;;;6.45;;
66721;SDS011;53633;49.932;10.884;2023-02-08T11:13:23;14.20;;;5.57;;
66721;SDS011;53633;49.932;10.884;2023-02-08T11:15:54;15.80;;;5.47;;
66721;SDS011;53633;49.932;10.884;2023-02-08T11:18:23;15.52;;;5.13;;
66721;SDS011;53633;49.932;10.884;2023-02-08T11:20:53;13.70;;;4.85;;
66721;SDS011;53633;49.932;10.884;2023-02-08T11:23:23;13.73;;;4.57;;
66721;SDS011;53633;49.932;10.884;2023-02-08T11:25:53;13.27;;;4.80;;
66721;SDS011;53633;49.932;10.884;2023-02-08T11:28:37;17.25;;;5.95;;
66721;SDS011;53633;49.932;10.884;2023-02-08T11:31:08;16.95;;;5.22;;
66721;SDS011;53633;49.932;10.884;2023-02-08T11:33:45;16.38;;;5.03;;
66721;SDS011;53633;49.932;10.884;2023-02-08T11:36:25;14.35;;;5.40;;
66721;SDS011;53633;49.932;10.884;2023-02-08T11:38:53;17.10;;;5.40;;
66721;SDS011;53633;49.932;10.884;2023-02-08T11:41:20;15.48;;;5.45;;
66721;SDS011;53633;49.932;10.884;2023-02-08T11:43:51;15.90;;;5.95;;
66721;SDS011;53633;49.932;10.884;2023-02-08T11:46:22;15.73;;;5.85;;
66721;SDS011;53633;49.932;10.884;2023-02-08T11:48:51;18.70;;;6.05;;
66721;SDS011;53633;49.932;10.884;2023-02-08T11:51:23;14.03;;;4.90;;
66721;SDS011;53633;49.932;10.884;2023-02-08T11:53:54;14.93;;;5.18;;
66721;SDS011;53633;49.932;10.884;2023-02-08T11:56:21;14.60;;;5.70;;
66721;SDS011;53633;49.932;10.884;2023-02-08T11:58:59;14.98;;;5.78;;
66721;SDS011;53633;49.932;10.884;2023-02-08T12:01:28;15.63;;;6.28;;
66721;SDS011;53633;49.932;10.884;2023-02-08T12:03:57;17.80;;;6.43;;
66721;SDS011;53633;49.932;10.884;2023-02-08T12:09:27;15.43;;;4.90;;
66721;SDS011;53633;49.932;10.884;2023-02-08T12:12:06;10.70;;;3.83;;
66721;SDS011;53633;49.932;10.884;2023-02-08T12:14:45;14.45;;;4.68;;
66721;SDS011;53633;49.932;10.884;2023-02-08T12:20:33;13.88;;;4.85;;
66721;SDS011;53633;49.932;10.884;2023-02-08T12:25:59;16.33;;;4.93;;
66721;SDS011;53633;49.932;10.884;2023-02-08T12:28:39;21.27;;;4.90;;
66721;SDS011;53633;49.932;10.884;2023-02-08T12:31:19;14.27;;;4.17;;
66721;SDS011;53633;49.932;10.884;2023-02-08T12:33:56;13.45;;;4.00;;
66721;SDS011;53633;49.932;10.884;2023-02-08T12:42:20;18.75;;;7.40;;
66721;SDS011;53633;49.932;10.884;2023-02-08T12:45:00;16.77;;;5.83;;
66721;SDS011;53633;49.932;10.884;2023-02-08T12:47:37;18.73;;;6.00;;
66721;SDS011;53633;49.932;10.884;2023-02-08T12:50:30;14.57;;;6.18;;
66721;SDS011;53633;49.932;10.884;2023-02-08T12:53:02;17.08;;;5.72;;
66721;SDS011;53633;49.932;10.884;2023-02-08T12:55:38;14.27;;;5.57;;
66721;SDS011;53633;49.932;10.884;2023-02-08T12:58:14;13.10;;;5.53;;
66721;SDS011;53633;49.932;10.884;2023-02-08T13:00:51;13.85;;;5.32;;
66721;SDS011;53633;49.932;10.884;2023-02-08T13:03:22;12.23;;;4.88;;
66721;SDS011;53633;49.932;10.884;2023-02-08T13:05:57;14.07;;;4.80;;
66721;SDS011;53633;49.932;10.884;2023-02-08T13:08:28;14.20;;;5.30;;
66721;SDS011;53633;49.932;10.884;2023-02-08T13:11:01;16.20;;;5.70;;
66721;SDS011;53633;49.932;10.884;2023-02-08T13:13:47;13.07;;;4.93;;
66721;SDS011;53633;49.932;10.884;2023-02-08T13:16:22;16.48;;;6.43;;
66721;SDS011;53633;49.932;10.884;2023-02-08T13:18:53;15.60;;;5.30;;
66721;SDS011;53633;49.932;10.884;2023-02-08T13:21:33;14.35;;;4.82;;
66721;SDS011;53633;49.932;10.884;2023-02-08T13:24:04;15.03;;;4.63;;
66721;SDS011;53633;49.932;10.884;2023-02-08T13:26:38;13.80;;;4.93;;
66721;SDS011;53633;49.932;10.884;2023-02-08T13:29:12;12.38;;;4.78;;
66721;SDS011;53633;49.932;10.884;2023-02-08T13:31:43;14.93;;;5.57;;
66721;SDS011;53633;49.932;10.884;2023-02-08T13:34:13;13.77;;;4.57;;
66721;SDS011;53633;49.932;10.884;2023-02-08T13:36:48;14.37;;;4.20;;
66721;SDS011;53633;49.932;10.884;2023-02-08T13:39:27;18.00;;;6.15;;
66721;SDS011;53633;49.932;10.884;2023-02-08T13:42:00;16.52;;;5.57;;
66721;SDS011;53633;49.932;10.884;2023-02-08T13:44:29;15.02;;;4.75;;
66721;SDS011;53633;49.932;10.884;2023-02-08T13:46:59;16.75;;;5.80;;
66721;SDS011;53633;49.932;10.884;2023-02-08T13:49:40;14.77;;;5.17;;
66721;SDS011;53633;49.932;10.884;2023-02-08T13:52:09;17.80;;;6.57;;
66721;SDS011;53633;49.932;10.884;2023-02-08T13:54:37;16.83;;;6.10;;
66721;SDS011;53633;49.932;10.884;2023-02-08T14:00:23;13.68;;;5.07;;
66721;SDS011;53633;49.932;10.884;2023-02-08T14:02:58;13.53;;;4.00;;
66721;SDS011;53633;49.932;10.884;2023-02-08T14:05:33;12.85;;;4.72;;
66721;SDS011;53633;49.932;10.884;2023-02-08T14:08:11;15.55;;;4.60;;
66721;SDS011;53633;49.932;10.884;2023-02-08T14:10:48;15.52;;;5.65;;
66721;SDS011;53633;49.932;10.884;2023-02-08T14:13:27;14.55;;;4.93;;
66721;SDS011;53633;49.932;10.884;2023-02-08T14:18:52;15.05;;;5.57;;
66721;SDS011;53633;49.932;10.884;2023-02-08T14:21:26;17.27;;;5.55;;
66721;SDS011;53633;49.932;10.884;2023-02-08T14:24:00;18.60;;;5.70;;
66721;SDS011;53633;49.932;10.884;2023-02-08T14:26:29;13.82;;;4.72;;
66721;SDS011;53633;49.932;10.884;2023-02-08T14:28:57;19.07;;;5.33;;
66721;SDS011;53633;49.932;10.884;2023-02-08T14:31:38;14.85;;;5.00;;
66721;SDS011;53633;49.932;10.884;2023-02-08T14:34:18;16.92;;;5.32;;
66721;SDS011;53633;49.932;10.884;2023-02-08T14:36:52;13.07;;;4.57;;
66721;SDS011;53633;49.932;10.884;2023-02-08T14:39:25;13.55;;;4.40;;
66721;SDS011;53633;49.932;10.884;2023-02-08T14:41:53;18.73;;;6.13;;
66721;SDS011;53633;49.932;10.884;2023-02-08T14:47:51;14.73;;;4.55;;
66721;SDS011;53633;49.932;10.884;2023-02-08T14:50:21;13.88;;;4.53;;
66721;SDS011;53633;49.932;10.884;2023-02-08T14:52:54;15.95;;;5.85;;
66721;SDS011;53633;49.932;10.884;2023-02-08T14:55:26;16.07;;;5.37;;
66721;SDS011;53633;49.932;10.884;2023-02-08T14:57:57;22.35;;;6.95;;
66721;SDS011;53633;49.932;10.884;2023-02-08T15:00:27;15.50;;;5.35;;
66721;SDS011;53633;49.932;10.884;2023-02-08T15:03:00;20.95;;;6.95;;
66721;SDS011;53633;49.932;10.884;2023-02-08T15:05:30;15.45;;;5.90;;
66721;SDS011;53633;49.932;10.884;2023-02-08T15:08:03;16.97;;;5.50;;
66721;SDS011;53633;49.932;10.884;2023-02-08T15:10:31;16.38;;;5.55;;